Time;durP1;ratioP1;P1;durP2;ratioP2;P2;SDS_P1;SDS_P2;PMS_P1;PMS_P2;Temp;Humidity;BMP_temperature;BMP_pressure;BME280_temperature;BME280_humidity;BME280_pressure;Samples;Min_cycle;Max_cycle;Signal;HPM_P1;HPM_P2
2023/10/05 00:01:02;;;;;;;3.95;2.42;;;8.90;99.90;;;;;;5054684;28;20544;-69
2023/10/05 00:02:56;;;;;;;3.55;2.30;;;8.80;99.90;;;;;;5049613;28;20041;-68
2023/10/05 00:05:28;;;;;;;3.03;1.80;;;8.80;99.90;;;;;;5056456;28;20120;-69
2023/10/05 00:08:00;;;;;;;7.43;2.63;;;8.80;99.90;;;;;;5054421;28;20313;-68
2023/10/05 00:10:27;;;;;;;6.63;2.70;;;8.80;99.90;;;;;;5054054;28;20048;-68
2023/10/05 00:13:05;;;;;;;4.15;2.78;;;8.80;99.90;;;;;;5056542;28;20037;-68
2023/10/05 00:15:37;;;;;;;4.15;2.13;;;8.80;99.90;;;;;;5057258;28;20068;-68
2023/10/05 00:18:10;;;;;;;3.15;2.25;;;8.70;99.90;;;;;;5059347;28;20033;-68
2023/10/05 00:20:42;;;;;;;4.47;2.58;;;8.70;99.90;;;;;;5063398;28;20540;-68
2023/10/05 00:23:14;;;;;;;5.13;1.90;;;8.60;99.90;;;;;;5056647;28;20047;-68
2023/10/05 00:25:47;;;;;;;5.30;2.55;;;8.60;99.90;;;;;;5063312;28;20094;-68
2023/10/05 00:28:23;;;;;;;4.00;2.23;;;8.60;99.90;;;;;;5055273;28;20044;-67
2023/10/05 00:30:57;;;;;;;3.53;2.35;;;8.60;99.90;;;;;;5057597;28;20618;-68
2023/10/05 00:33:32;;;;;;;5.88;2.47;;;8.50;99.90;;;;;;5039404;28;20055;-68
2023/10/05 00:36:05;;;;;;;4.60;2.13;;;8.50;99.90;;;;;;5047723;28;20036;-69
2023/10/05 00:38:34;;;;;;;3.58;2.00;;;8.50;99.90;;;;;;5060541;28;20041;-69
2023/10/05 00:41:09;;;;;;;2.88;2.10;;;8.50;99.90;;;;;;5058101;28;20045;-69
2023/10/05 00:43:41;;;;;;;3.88;2.20;;;8.40;99.90;;;;;;5048718;28;20041;-69
2023/10/05 00:46:13;;;;;;;3.08;2.30;;;8.30;99.90;;;;;;5046564;28;20124;-69
2023/10/05 00:51:36;;;;;;;5.05;2.50;;;8.30;99.90;;;;;;5061332;28;20053;-69
2023/10/05 00:54:11;;;;;;;6.68;2.20;;;8.30;99.90;;;;;;5061872;28;20041;-68
2023/10/05 00:56:45;;;;;;;4.18;2.42;;;8.30;99.90;;;;;;5055836;28;20052;-68
2023/10/05 00:59:20;;;;;;;4.80;2.55;;;8.30;99.90;;;;;;5057448;28;20560;-69
2023/10/05 01:04:52;;;;;;;3.65;2.45;;;8.20;99.90;;;;;;5060074;28;20068;-68
2023/10/05 01:12:45;;;;;;;3.53;2.17;;;8.00;99.90;;;;;;5061459;28;20641;-68
2023/10/05 01:15:21;;;;;;;3.17;2.17;;;8.00;99.90;;;;;;5063902;28;20132;-70
2023/10/05 01:17:53;;;;;;;3.08;1.98;;;8.10;99.90;;;;;;5060644;28;20059;-68
2023/10/05 01:20:28;;;;;;;4.75;2.35;;;8.10;99.90;;;;;;5061905;28;20044;-68
2023/10/05 01:23:01;;;;;;;4.18;2.00;;;8.10;99.90;;;;;;5065612;28;20045;-68
2023/10/05 01:25:36;;;;;;;3.85;2.30;;;8.10;99.90;;;;;;5061090;28;20048;-68
2023/10/05 01:28:08;;;;;;;4.28;2.67;;;8.10;99.90;;;;;;5060219;28;20067;-68
2023/10/05 01:30:40;;;;;;;2.88;1.95;;;8.10;99.90;;;;;;5054842;28;20037;-69
2023/10/05 01:33:13;;;;;;;5.15;2.28;;;8.00;99.90;;;;;;5056075;28;20110;-69
2023/10/05 01:35:46;;;;;;;4.55;2.35;;;8.00;99.90;;;;;;5061856;28;20086;-68
2023/10/05 01:38:18;;;;;;;3.88;2.42;;;8.00;99.90;;;;;;5060008;28;20041;-69
2023/10/05 01:40:54;;;;;;;3.60;2.25;;;7.90;99.90;;;;;;5054199;28;20072;-68
2023/10/05 01:43:29;;;;;;;5.32;2.10;;;7.90;99.90;;;;;;5070457;28;20045;-68
2023/10/05 01:46:02;;;;;;;4.13;1.90;;;7.90;99.90;;;;;;5063064;28;20048;-70
2023/10/05 01:48:35;;;;;;;3.28;2.05;;;7.90;99.90;;;;;;5069532;28;20059;-67
2023/10/05 01:51:09;;;;;;;3.22;2.15;;;7.80;99.90;;;;;;5061969;28;20147;-68
2023/10/05 01:53:43;;;;;;;4.20;2.10;;;7.90;99.90;;;;;;5059578;28;20055;-68
2023/10/05 01:56:17;;;;;;;4.43;1.83;;;7.90;99.90;;;;;;5062294;28;20119;-69
2023/10/05 01:58:54;;;;;;;2.58;1.88;;;7.80;99.90;;;;;;5061503;28;20131;-68
2023/10/05 02:01:28;;;;;;;3.80;2.47;;;7.80;99.90;;;;;;5059403;28;20045;-68
2023/10/05 02:03:57;;;;;;;3.72;1.92;;;7.80;99.90;;;;;;5060181;28;20127;-68
2023/10/05 02:06:39;;;;;;;3.60;2.13;;;7.90;99.90;;;;;;5056304;28;20698;-69
2023/10/05 02:09:13;;;;;;;2.72;2.00;;;7.90;99.90;;;;;;5058747;28;20122;-68
2023/10/05 02:11:49;;;;;;;5.32;2.45;;;7.80;99.90;;;;;;5069484;28;20123;-68
2023/10/05 02:14:22;;;;;;;5.80;2.85;;;7.80;99.90;;;;;;5058385;28;20040;-69
2023/10/05 02:16:49;;;;;;;3.72;2.30;;;7.90;99.90;;;;;;5040564;28;20148;-69
2023/10/05 02:19:22;;;;;;;4.63;2.25;;;7.90;99.90;;;;;;5043575;28;20040;-69
2023/10/05 02:21:54;;;;;;;5.40;2.35;;;7.90;99.90;;;;;;5067788;28;20058;-69
2023/10/05 02:24:26;;;;;;;2.70;1.70;;;7.90;99.90;;;;;;5059357;28;20182;-69
2023/10/05 02:29:31;;;;;;;4.38;2.28;;;7.90;99.90;;;;;;5056854;28;20037;-68
2023/10/05 02:32:10;;;;;;;3.45;1.73;;;7.90;99.90;;;;;;5045067;28;20041;-68
2023/10/05 02:37:28;;;;;;;4.50;2.22;;;7.80;99.90;;;;;;5056207;28;20055;-70
2023/10/05 02:40:07;;;;;;;5.15;2.30;;;7.80;99.90;;;;;;5064941;28;20040;-68
2023/10/05 02:42:39;;;;;;;3.17;2.03;;;7.80;99.90;;;;;;5066787;28;20068;-69
2023/10/05 02:45:11;;;;;;;5.55;2.33;;;7.80;99.90;;;;;;5065653;28;20582;-69
2023/10/05 02:47:39;;;;;;;5.25;2.13;;;7.80;99.90;;;;;;5065489;28;20449;-69
2023/10/05 02:50:11;;;;;;;3.63;2.20;;;7.80;99.90;;;;;;5059185;28;20037;-67
2023/10/05 02:52:43;;;;;;;3.53;2.30;;;7.80;99.90;;;;;;5056698;28;20041;-68
2023/10/05 02:55:15;;;;;;;5.35;2.20;;;7.70;99.90;;;;;;5055452;28;20091;-68
2023/10/05 02:57:47;;;;;;;5.00;2.33;;;7.70;99.90;;;;;;5057570;28;20534;-67
2023/10/05 03:00:20;;;;;;;3.47;2.20;;;7.70;99.90;;;;;;5044889;28;20432;-67
2023/10/05 03:02:50;;;;;;;4.93;2.30;;;7.70;99.90;;;;;;5058146;28;20127;-68
2023/10/05 03:05:25;;;;;;;3.50;2.20;;;7.70;99.90;;;;;;5054018;28;20500;-68
2023/10/05 03:07:58;;;;;;;3.88;2.30;;;7.70;99.90;;;;;;5041944;28;20717;-68
2023/10/05 03:10:30;;;;;;;3.28;1.90;;;7.70;99.90;;;;;;5040322;28;20074;-68
2023/10/05 03:13:04;;;;;;;3.15;2.30;;;7.70;99.90;;;;;;5041809;28;20087;-68
2023/10/05 03:15:37;;;;;;;3.42;2.63;;;7.70;99.90;;;;;;5052705;28;20034;-68
2023/10/05 03:18:09;;;;;;;4.93;2.45;;;7.70;99.90;;;;;;5045229;28;20078;-68
2023/10/05 03:20:44;;;;;;;3.72;2.20;;;7.70;99.90;;;;;;5059354;28;20053;-68
2023/10/05 03:23:14;;;;;;;7.25;2.72;;;7.70;99.90;;;;;;5057093;28;20036;-68
2023/10/05 03:25:47;;;;;;;3.92;2.10;;;7.70;99.90;;;;;;5066256;28;20140;-68
2023/10/05 03:28:19;;;;;;;;;;;7.70;99.90;;;;;;5054901;28;20043;-67
2023/10/05 03:30:53;;;;;;;3.28;2.30;;;8.10;99.90;;;;;;5039662;28;19959;-68
2023/10/05 03:33:27;;;;;;;5.00;2.90;;;8.70;99.90;;;;;;5060184;28;20126;-68
2023/10/05 03:36:06;;;;;;;5.35;2.90;;;8.70;99.90;;;;;;5057512;28;20587;-68
2023/10/05 03:38:34;;;;;;;5.65;2.38;;;8.70;99.90;;;;;;5053480;28;20516;-68
2023/10/05 03:41:08;;;;;;;3.35;2.10;;;8.50;99.90;;;;;;5049832;28;20037;-68
2023/10/05 03:43:41;;;;;;;2.72;1.95;;;8.40;99.90;;;;;;5040343;28;20049;-68
2023/10/05 03:46:12;;;;;;;4.38;2.55;;;8.20;99.90;;;;;;5063131;28;20045;-69
2023/10/05 03:48:44;;;;;;;3.13;2.20;;;8.10;99.90;;;;;;5054834;28;20044;-68
2023/10/05 03:51:17;;;;;;;2.72;2.00;;;8.00;99.90;;;;;;5061998;28;20045;-67
2023/10/05 03:53:48;;;;;;;3.83;2.40;;;8.00;99.90;;;;;;5041111;28;20028;-69
2023/10/05 03:56:23;;;;;;;3.13;2.05;;;7.80;99.90;;;;;;5058624;28;20037;-69
2023/10/05 03:59:00;;;;;;;3.40;1.90;;;7.80;99.90;;;;;;5048041;28;20049;-69
2023/10/05 04:01:32;;;;;;;3.25;2.00;;;7.60;99.90;;;;;;5073495;28;20073;-69
2023/10/05 04:04:08;;;;;;;4.45;2.13;;;7.60;99.90;;;;;;5058109;28;20090;-68
2023/10/05 04:06:41;;;;;;;4.25;1.90;;;7.50;99.90;;;;;;5050675;28;20055;-68
2023/10/05 04:09:15;;;;;;;3.03;1.98;;;7.40;99.90;;;;;;5049331;28;20424;-69
2023/10/05 04:11:48;;;;;;;4.13;2.00;;;7.40;99.90;;;;;;5055602;28;20102;-69
2023/10/05 04:14:14;;;;;;;4.35;2.00;;;7.40;99.90;;;;;;5059902;28;20045;-69
2023/10/05 04:16:48;;;;;;;3.13;1.67;;;7.30;99.90;;;;;;5056326;28;20037;-68
2023/10/05 04:19:20;;;;;;;3.42;2.30;;;7.30;99.90;;;;;;5062631;28;20482;-69
2023/10/05 04:21:55;;;;;;;5.03;2.10;;;7.30;99.90;;;;;;5055451;28;20069;-69
2023/10/05 04:24:27;;;;;;;4.38;1.92;;;7.30;99.90;;;;;;5059312;28;20131;-68
2023/10/05 04:26:59;;;;;;;3.17;1.80;;;7.30;99.90;;;;;;5056239;28;20517;-68
2023/10/05 04:29:31;;;;;;;4.10;1.85;;;7.30;99.90;;;;;;5060637;28;20040;-69
2023/10/05 04:32:06;;;;;;;3.85;2.17;;;7.30;99.90;;;;;;5057573;28;20052;-69
2023/10/05 04:34:38;;;;;;;3.25;2.13;;;7.30;99.90;;;;;;5055962;28;20041;-69
2023/10/05 04:37:12;;;;;;;7.22;2.58;;;7.30;99.90;;;;;;5060705;28;20037;-68
2023/10/05 04:39:40;;;;;;;3.88;2.00;;;7.30;99.90;;;;;;5061115;28;20463;-68
2023/10/05 04:42:11;;;;;;;3.80;1.95;;;7.40;99.90;;;;;;5055917;28;20467;-69
2023/10/05 04:44:45;;;;;;;5.88;2.05;;;7.30;99.90;;;;;;5056319;28;20365;-68
2023/10/05 04:47:17;;;;;;;8.20;2.30;;;7.20;99.90;;;;;;5061768;28;20114;-69
2023/10/05 04:49:49;;;;;;;3.53;2.17;;;7.20;99.90;;;;;;5053750;28;20045;-69
2023/10/05 04:52:23;;;;;;;4.53;2.83;;;7.30;99.90;;;;;;5056699;28;20640;-69
2023/10/05 04:54:57;;;;;;;;;;;7.20;99.90;;;;;;5054825;28;20029;-69
2023/10/05 04:57:35;;;;;;;;;;;7.20;99.90;;;;;;5060424;28;19920;-69
2023/10/05 05:03:17;;;;;;;2.75;1.90;;;7.30;99.90;;;;;;5055754;28;20071;-69
2023/10/05 05:08:38;;;;;;;8.25;3.03;;;7.30;99.90;;;;;;5057502;28;20048;-68
2023/10/05 05:11:18;;;;;;;5.55;2.00;;;7.30;99.90;;;;;;5065409;28;20065;-68
2023/10/05 05:13:51;;;;;;;6.05;2.28;;;7.30;99.90;;;;;;5062262;28;20040;-69
2023/10/05 05:16:18;;;;;;;5.95;2.63;;;7.20;99.90;;;;;;5058358;28;20049;-66
2023/10/05 05:18:50;;;;;;;6.28;2.70;;;7.20;99.90;;;;;;5063375;28;20076;-67
2023/10/05 05:21:22;;;;;;;6.97;2.55;;;7.20;99.90;;;;;;5067598;28;20033;-68
2023/10/05 05:23:54;;;;;;;5.18;2.05;;;7.20;99.90;;;;;;5067728;28;20041;-68
2023/10/05 05:26:22;;;;;;;3.00;1.88;;;7.20;99.90;;;;;;5062805;28;20144;-68
2023/10/05 05:28:54;;;;;;;5.05;2.60;;;7.20;99.90;;;;;;5062639;28;20127;-68
2023/10/05 05:31:27;;;;;;;5.38;2.55;;;7.20;99.90;;;;;;5071470;28;20408;-68
2023/10/05 05:33:59;;;;;;;9.55;3.60;;;7.20;99.90;;;;;;5064387;28;20526;-68
2023/10/05 05:36:32;;;;;;;5.40;2.40;;;7.30;99.90;;;;;;5055216;28;20564;-68
2023/10/05 05:39:04;;;;;;;5.50;2.80;;;7.30;99.90;;;;;;5065533;28;20037;-68
2023/10/05 05:41:37;;;;;;;5.82;2.20;;;7.30;99.90;;;;;;5058890;28;20095;-69
2023/10/05 05:44:08;;;;;;;3.97;2.47;;;7.30;99.90;;;;;;5042170;28;20063;-68
2023/10/05 05:46:43;;;;;;;4.30;2.08;;;7.30;99.90;;;;;;5060693;28;20047;-68
2023/10/05 05:49:16;;;;;;;6.30;2.40;;;7.30;99.90;;;;;;5060523;28;20044;-68
2023/10/05 05:51:48;;;;;;;5.93;2.78;;;7.30;99.90;;;;;;5058338;28;20041;-67
2023/10/05 05:54:20;;;;;;;7.72;2.58;;;7.40;99.90;;;;;;5066212;28;20064;-68
2023/10/05 05:56:54;;;;;;;4.32;2.20;;;7.60;99.90;;;;;;5061214;28;20041;-68
2023/10/05 05:59:27;;;;;;;9.02;3.20;;;7.70;99.90;;;;;;5056257;28;20033;-68
2023/10/05 06:02:00;;;;;;;13.18;3.05;;;7.70;99.90;;;;;;5060060;28;20040;-68
2023/10/05 06:04:32;;;;;;;4.85;2.75;;;7.70;99.90;;;;;;5056367;28;20417;-68
2023/10/05 06:07:11;;;;;;;5.80;2.28;;;7.70;99.90;;;;;;5059685;28;20041;-68
2023/10/05 06:09:48;;;;;;;4.95;2.08;;;7.70;99.90;;;;;;5055396;28;20051;-67
2023/10/05 06:12:20;;;;;;;5.40;2.17;;;7.70;99.90;;;;;;5063006;28;20036;-68
2023/10/05 06:14:52;;;;;;;4.22;2.50;;;7.80;99.90;;;;;;5059813;28;20116;-68
2023/10/05 06:17:24;;;;;;;12.55;3.10;;;7.80;99.90;;;;;;5067404;28;20041;-68
2023/10/05 06:19:56;;;;;;;8.10;2.90;;;7.90;99.90;;;;;;5067430;28;20044;-68
2023/10/05 06:22:23;;;;;;;6.88;2.92;;;7.90;99.90;;;;;;5057951;28;20033;-68
2023/10/05 06:24:55;;;;;;;5.65;2.97;;;7.90;99.90;;;;;;5061214;28;20048;-68
2023/10/05 06:27:27;;;;;;;3.60;2.55;;;8.00;99.90;;;;;;5063620;28;20128;-68
2023/10/05 06:29:59;;;;;;;4.13;2.83;;;8.00;99.90;;;;;;5059219;28;20049;-69
2023/10/05 06:32:33;;;;;;;5.00;2.78;;;8.00;99.90;;;;;;5064929;28;20037;-68
2023/10/05 06:35:09;;;;;;;4.40;2.88;;;8.10;99.90;;;;;;5056485;28;20530;-69
2023/10/05 06:37:41;;;;;;;10.35;3.35;;;8.20;99.90;;;;;;5045518;28;20605;-68
2023/10/05 06:40:13;;;;;;;7.28;3.42;;;8.20;99.90;;;;;;5060312;28;20032;-68
2023/10/05 06:42:43;;;;;;;6.30;3.28;;;8.30;99.90;;;;;;5056323;28;20048;-68
2023/10/05 06:45:16;;;;;;;6.65;3.30;;;8.30;99.90;;;;;;5054793;28;20037;-68
2023/10/05 06:47:48;;;;;;;11.40;3.03;;;8.20;99.90;;;;;;5061812;28;20063;-68
2023/10/05 06:50:21;;;;;;;6.13;2.80;;;8.30;99.90;;;;;;5058248;28;20036;-68
2023/10/05 06:52:53;;;;;;;3.80;2.42;;;8.20;99.90;;;;;;5058033;28;20544;-68
2023/10/05 06:55:25;;;;;;;7.22;3.03;;;8.20;99.90;;;;;;5066798;28;20180;-68
2023/10/05 06:57:57;;;;;;;5.30;2.60;;;8.20;99.90;;;;;;5041016;28;20614;-67
2023/10/05 07:00:26;;;;;;;10.30;4.53;;;8.30;99.90;;;;;;5058262;28;20485;-69
2023/10/05 07:02:59;;;;;;;10.15;5.68;;;8.30;99.90;;;;;;5058450;28;20047;-68
2023/10/05 07:05:32;;;;;;;10.73;5.55;;;8.30;99.90;;;;;;5058553;28;20041;-68
2023/10/05 07:08:05;;;;;;;8.13;4.38;;;8.30;99.90;;;;;;5053019;28;20052;-68
2023/10/05 07:10:36;;;;;;;7.15;3.35;;;8.40;99.90;;;;;;5057837;28;20051;-68
2023/10/05 07:13:09;;;;;;;7.63;3.20;;;8.40;99.90;;;;;;5061929;28;20076;-68
2023/10/05 07:15:41;;;;;;;6.90;3.38;;;8.50;99.90;;;;;;5056832;28;20052;-68
2023/10/05 07:18:13;;;;;;;5.85;3.63;;;8.60;99.90;;;;;;5055578;28;20041;-68
2023/10/05 07:20:45;;;;;;;5.40;3.28;;;8.70;99.90;;;;;;5055007;28;20041;-68
2023/10/05 07:23:17;;;;;;;6.85;3.47;;;8.70;99.90;;;;;;5059596;28;20042;-68
2023/10/05 07:25:49;;;;;;;6.82;3.25;;;8.90;99.90;;;;;;5044834;28;20045;-68
2023/10/05 07:28:21;;;;;;;6.03;3.60;;;9.00;99.90;;;;;;5057013;28;20578;-68
2023/10/05 07:30:56;;;;;;;4.90;3.55;;;9.10;99.90;;;;;;5059359;28;20040;-68
2023/10/05 07:33:23;;;;;;;8.98;4.28;;;9.10;99.90;;;;;;5056101;28;20025;-68
2023/10/05 07:35:50;;;;;;;6.03;3.88;;;9.20;99.90;;;;;;5059933;28;20044;-68
2023/10/05 07:38:28;;;;;;;8.70;5.00;;;9.30;99.90;;;;;;5058740;28;20496;-68
2023/10/05 07:40:56;;;;;;;8.80;4.78;;;9.40;99.90;;;;;;5058538;28;20576;-68
2023/10/05 07:43:28;;;;;;;7.50;5.33;;;9.50;99.90;;;;;;5052039;28;20041;-68
2023/10/05 07:46:06;;;;;;;7.00;4.82;;;9.60;99.90;;;;;;5052007;28;20453;-68
2023/10/05 07:48:38;;;;;;;8.63;4.57;;;9.70;99.90;;;;;;5058056;28;20045;-68
2023/10/05 07:51:13;;;;;;;6.65;5.20;;;9.80;99.90;;;;;;5068177;28;20044;-68
2023/10/05 07:53:45;;;;;;;8.65;5.47;;;9.90;99.90;;;;;;5053563;28;20045;-68
2023/10/05 07:56:18;;;;;;;11.30;7.53;;;10.00;99.90;;;;;;5057837;28;20420;-67
2023/10/05 07:58:50;;;;;;;8.48;6.18;;;10.00;99.90;;;;;;5060054;28;20523;-68
2023/10/05 08:01:21;;;;;;;9.20;6.68;;;10.00;99.90;;;;;;5043958;28;20053;-68
2023/10/05 08:03:58;;;;;;;9.70;6.80;;;10.00;99.90;;;;;;5059696;28;20087;-68
2023/10/05 08:06:29;;;;;;;7.28;5.95;;;10.00;99.90;;;;;;5056734;28;20048;-70
2023/10/05 08:09:03;;;;;;;8.48;6.50;;;10.10;99.90;;;;;;5052330;28;20420;-68
2023/10/05 08:11:37;;;;;;;10.57;6.70;;;10.30;99.90;;;;;;5059051;28;20032;-69
2023/10/05 08:14:04;;;;;;;10.85;5.50;;;10.40;99.90;;;;;;5057609;28;20088;-69
2023/10/05 08:16:36;;;;;;;10.25;6.22;;;10.60;99.90;;;;;;5065667;28;20052;-69
2023/10/05 08:19:08;;;;;;;7.60;6.07;;;10.60;99.90;;;;;;5052461;28;20045;-68
2023/10/05 08:21:41;;;;;;;8.65;5.97;;;10.70;99.90;;;;;;5058281;28;20049;-68
2023/10/05 08:24:14;;;;;;;7.88;6.22;;;10.80;99.90;;;;;;5058066;28;20409;-68
2023/10/05 08:26:45;;;;;;;9.73;6.07;;;10.80;99.90;;;;;;5054550;28;20041;-68
2023/10/05 08:29:18;;;;;;;7.90;6.38;;;11.00;99.90;;;;;;5056185;28;20043;-68
2023/10/05 08:31:51;;;;;;;10.10;7.17;;;11.00;99.90;;;;;;5042564;28;20056;-69
2023/10/05 08:34:22;;;;;;;10.13;6.90;;;11.10;99.90;;;;;;5057623;28;20317;-68
2023/10/05 08:36:51;;;;;;;10.32;6.03;;;11.20;99.90;;;;;;5058591;28;20068;-68
2023/10/05 08:39:25;;;;;;;10.07;6.28;;;11.30;99.90;;;;;;5057742;28;20036;-69
2023/10/05 08:42:06;;;;;;;9.82;7.22;;;11.30;99.90;;;;;;5053428;28;20052;-68
2023/10/05 08:44:38;;;;;;;11.75;8.20;;;11.30;99.90;;;;;;5063319;28;20497;-68
2023/10/05 08:47:12;;;;;;;12.23;7.07;;;11.40;99.90;;;;;;5057107;28;20536;-68
2023/10/05 08:49:44;;;;;;;11.65;7.57;;;11.50;99.90;;;;;;5054766;28;20049;-68
2023/10/05 08:52:20;;;;;;;9.85;7.90;;;11.60;99.90;;;;;;5052132;28;20483;-68
2023/10/05 08:54:50;;;;;;;11.52;7.40;;;11.70;99.90;;;;;;5056418;28;20127;-68
2023/10/05 08:57:24;;;;;;;11.77;8.00;;;11.90;99.90;;;;;;5061726;28;20040;-68
2023/10/05 08:59:58;;;;;;;9.85;7.88;;;12.10;99.90;;;;;;5061159;28;20119;-68
2023/10/05 09:02:25;;;;;;;12.77;7.40;;;12.20;99.90;;;;;;5059122;28;20114;-68
2023/10/05 09:05:07;;;;;;;10.95;7.35;;;12.30;99.90;;;;;;5060331;28;20488;-68
2023/10/05 09:07:39;;;;;;;9.82;6.55;;;12.40;99.90;;;;;;5061510;28;20048;-68
2023/10/05 09:10:26;;;;;;;11.30;7.72;;;12.40;99.90;;;;;;5061939;28;20041;-67
2023/10/05 09:13:07;;;;;;;10.43;7.00;;;12.40;99.90;;;;;;5068087;28;20043;-69
2023/10/05 09:15:50;;;;;;;9.48;7.25;;;12.40;99.90;;;;;;5064937;28;20033;-68
2023/10/05 09:18:25;;;;;;;11.20;7.13;;;12.60;99.90;;;;;;5055274;28;20124;-68
2023/10/05 09:20:57;;;;;;;9.80;7.35;;;12.80;99.90;;;;;;5061649;28;20043;-68
2023/10/05 09:23:32;;;;;;;11.25;8.43;;;12.80;99.90;;;;;;5059410;28;20033;-68
2023/10/05 09:26:06;;;;;;;9.75;7.78;;;12.90;99.90;;;;;;5058312;28;20423;-68
2023/10/05 09:28:44;;;;;;;11.77;7.80;;;12.80;99.90;;;;;;5065501;28;20041;-68
2023/10/05 09:31:19;;;;;;;10.95;7.25;;;12.80;99.90;;;;;;5070689;28;20535;-68
2023/10/05 09:33:53;;;;;;;8.60;7.20;;;13.00;99.90;;;;;;5065825;28;20044;-68
2023/10/05 09:36:20;;;;;;;10.20;6.97;;;13.10;99.90;;;;;;5043005;28;20124;-68
2023/10/05 09:38:48;;;;;;;10.90;7.80;;;13.20;99.90;;;;;;5058113;28;20524;-68
2023/10/05 09:41:25;;;;;;;12.77;7.10;;;13.30;99.90;;;;;;5056227;28;20037;-70
2023/10/05 09:44:05;;;;;;;9.45;7.72;;;13.30;99.90;;;;;;5060078;28;20123;-69
2023/10/05 09:46:33;;;;;;;12.25;7.68;;;13.30;99.90;;;;;;5058189;28;20086;-70
2023/10/05 09:49:02;;;;;;;9.75;7.40;;;13.30;99.90;;;;;;5057797;28;20059;-68
2023/10/05 09:51:35;;;;;;;12.82;7.35;;;13.40;99.90;;;;;;5057333;28;20552;-68
2023/10/05 09:54:10;;;;;;;10.18;6.93;;;13.40;99.90;;;;;;5056503;28;20060;-68
2023/10/05 09:56:42;;;;;;;11.02;6.95;;;13.40;99.90;;;;;;5051468;28;20049;-68
2023/10/05 09:59:18;;;;;;;9.07;7.40;;;13.50;99.90;;;;;;5059448;28;20036;-69
2023/10/05 10:01:50;;;;;;;9.55;7.22;;;13.60;99.90;;;;;;5058342;28;20044;-69
2023/10/05 10:04:34;;;;;;;9.98;7.57;;;13.70;99.90;;;;;;5059925;28;20915;-68
2023/10/05 10:07:05;;;;;;;12.05;7.40;;;13.80;99.90;;;;;;5059654;28;20057;-69
2023/10/05 10:09:41;;;;;;;9.15;7.07;;;13.90;99.90;;;;;;5060734;28;20524;-70
2023/10/05 10:12:28;;;;;;;9.65;7.10;;;14.00;99.90;;;;;;5061889;28;20051;-68
2023/10/05 10:15:01;;;;;;;10.30;7.80;;;14.10;99.90;;;;;;5057290;28;20507;-68
2023/10/05 10:17:30;;;;;;;7.90;6.45;;;14.10;99.90;;;;;;5054497;28;20159;-69
2023/10/05 10:20:34;;;;;;;11.82;7.22;;;14.20;99.90;;;;;;5063025;28;20041;-69
2023/10/05 10:23:35;;;;;;;11.75;7.55;;;14.30;99.90;;;;;;5052784;28;20103;-68
2023/10/05 10:26:17;;;;;;;11.82;7.28;;;14.50;99.90;;;;;;5040104;28;20048;-68
2023/10/05 10:28:56;;;;;;;8.32;6.22;;;14.60;99.90;;;;;;5043930;28;20044;-68
2023/10/05 10:31:30;;;;;;;7.93;6.35;;;14.70;99.90;;;;;;5060143;28;20044;-68
2023/10/05 10:34:28;;;;;;;7.18;5.78;;;14.90;99.90;;;;;;5042273;28;20044;-69
2023/10/05 10:37:03;;;;;;;8.60;5.60;;;15.10;99.90;;;;;;5061575;28;20032;-71
2023/10/05 10:39:37;;;;;;;7.15;4.97;;;15.30;99.90;;;;;;5056211;28;20044;-70
2023/10/05 10:42:18;;;;;;;8.98;5.40;;;15.40;99.90;;;;;;5051051;28;20102;-69
2023/10/05 10:47:23;;;;;;;7.53;5.25;;;15.50;99.90;;;;;;5059806;28;20539;-70
2023/10/05 10:50:11;;;;;;;8.98;4.88;;;15.50;99.90;;;;;;5061812;28;20127;-68
2023/10/05 10:52:43;;;;;;;8.85;5.82;;;15.50;99.90;;;;;;5042413;28;20572;-68
2023/10/05 10:55:16;;;;;;;8.90;5.30;;;15.60;99.90;;;;;;5058721;28;20059;-68
2023/10/05 10:57:53;;;;;;;8.73;5.30;;;15.60;99.90;;;;;;5062332;28;20563;-69
2023/10/05 11:00:54;;;;;;;7.95;5.53;;;15.70;99.90;;;;;;5058113;28;20064;-70
2023/10/05 11:03:25;;;;;;;8.82;4.70;;;15.80;99.90;;;;;;5055440;28;20415;-69
2023/10/05 11:05:58;;;;;;;8.18;4.78;;;15.90;99.90;;;;;;5057813;28;20481;-68
2023/10/05 11:08:30;;;;;;;8.07;4.97;;;16.00;99.90;;;;;;5056879;28;20044;-68
2023/10/05 11:11:10;;;;;;;5.40;4.22;;;16.00;99.90;;;;;;5058370;28;20509;-67
2023/10/05 11:13:45;;;;;;;6.78;4.45;;;16.10;99.90;;;;;;5063345;28;20069;-67
2023/10/05 11:16:19;;;;;;;6.40;4.50;;;16.20;99.90;;;;;;5060763;28;20504;-68
2023/10/05 11:18:57;;;;;;;6.82;3.88;;;16.20;99.90;;;;;;5058520;28;20053;-69
2023/10/05 11:21:34;;;;;;;5.30;3.97;;;16.10;99.90;;;;;;5062007;28;20040;-68
2023/10/05 11:24:06;;;;;;;6.72;3.88;;;16.20;99.90;;;;;;5055349;28;20037;-68
2023/10/05 11:27:05;;;;;;;8.50;4.23;;;16.30;99.90;;;;;;5042623;28;20037;-70
2023/10/05 11:29:42;;;;;;;6.53;4.50;;;16.30;99.90;;;;;;5060804;28;20718;-67
2023/10/05 11:32:21;;;;;;;7.50;4.47;;;16.40;99.90;;;;;;5060186;28;20029;-67
2023/10/05 11:34:55;;;;;;;8.27;4.60;;;16.50;99.90;;;;;;5066990;28;20035;-69
2023/10/05 11:37:27;;;;;;;7.40;4.57;;;16.60;99.90;;;;;;5057671;28;20059;-68
2023/10/05 11:40:04;;;;;;;7.07;4.60;;;16.70;99.90;;;;;;5055541;28;20037;-68
2023/10/05 11:42:41;;;;;;;5.63;3.45;;;16.80;99.90;;;;;;5061566;28;20037;-69
2023/10/05 11:45:16;;;;;;;7.22;3.88;;;16.90;99.90;;;;;;5057822;28;20040;-69
2023/10/05 11:47:52;;;;;;;5.05;3.58;;;16.90;99.90;;;;;;5063879;28;20536;-69
2023/10/05 11:50:33;;;;;;;7.10;3.40;;;16.90;99.90;;;;;;5052772;28;20029;-67
2023/10/05 11:53:11;;;;;;;7.63;4.03;;;16.90;99.90;;;;;;5060157;28;20061;-68
2023/10/05 11:55:47;;;;;;;8.23;3.85;;;17.00;99.90;;;;;;5057449;28;20049;-68
2023/10/05 11:58:22;;;;;;;6.90;3.42;;;17.10;99.90;;;;;;5054094;28;20043;-68
2023/10/05 12:00:48;;;;;;;6.38;2.97;;;17.20;99.90;;;;;;5062921;28;20039;-69
2023/10/05 12:03:20;;;;;;;12.23;4.55;;;17.40;99.90;;;;;;5056898;28;20041;-68
2023/10/05 12:05:53;;;;;;;5.75;3.67;;;17.40;99.90;;;;;;5059581;28;20037;-67
2023/10/05 12:08:24;;;;;;;5.72;2.60;;;17.40;99.90;;;;;;5061898;28;20064;-69
2023/10/05 12:10:51;;;;;;;5.65;2.47;;;17.40;99.90;;;;;;5062072;28;20040;-68
2023/10/05 12:13:23;;;;;;;12.68;4.95;;;17.20;99.90;;;;;;5042940;28;20037;-67
2023/10/05 12:15:56;;;;;;;4.32;2.53;;;17.20;99.90;;;;;;5063879;28;20032;-67
2023/10/05 12:18:25;;;;;;;5.88;2.45;;;17.20;99.90;;;;;;5059112;28;20227;-69
2023/10/05 12:20:57;;;;;;;6.63;2.65;;;17.20;99.90;;;;;;5062131;28;20049;-69
2023/10/05 12:23:29;;;;;;;6.25;3.35;;;17.20;99.90;;;;;;5055654;28;20124;-67
2023/10/05 12:26:04;;;;;;;4.32;2.75;;;17.20;99.90;;;;;;5064730;28;20139;-69
2023/10/05 12:28:43;;;;;;;8.40;2.60;;;17.20;99.90;;;;;;5059335;28;20049;-66
2023/10/05 12:31:15;;;;;;;6.65;2.50;;;17.20;99.90;;;;;;5080685;28;20397;-68
2023/10/05 12:33:42;;;;;;;7.32;3.60;;;17.30;99.90;;;;;;5061505;28;20025;-67
2023/10/05 12:36:16;;;;;;;6.78;2.90;;;17.30;99.90;;;;;;5066793;28;20036;-68
2023/10/05 12:38:48;;;;;;;5.78;3.03;;;17.40;99.90;;;;;;5059934;28;20044;-66
2023/10/05 12:41:15;;;;;;;8.80;3.60;;;17.40;99.90;;;;;;5062624;28;20071;-68
2023/10/05 12:43:47;;;;;;;6.93;2.80;;;17.40;99.90;;;;;;5063013;28;20539;-67
2023/10/05 12:46:28;;;;;;;4.93;2.90;;;17.40;99.90;;;;;;5060640;28;20037;-67
2023/10/05 12:48:56;;;;;;;4.32;2.67;;;17.20;99.90;;;;;;5065129;28;20064;-68
2023/10/05 12:51:28;;;;;;;5.43;2.88;;;17.20;99.90;;;;;;5058237;28;20684;-67
2023/10/05 12:54:00;;;;;;;7.40;3.10;;;17.20;99.90;;;;;;5060083;28;20033;-68
2023/10/05 12:56:27;;;;;;;7.10;3.15;;;17.20;99.90;;;;;;5055361;28;20515;-68
2023/10/05 12:58:54;;;;;;;5.43;2.83;;;17.10;99.90;;;;;;5067228;28;20033;-67
2023/10/05 13:01:27;;;;;;;7.57;2.60;;;17.10;99.90;;;;;;5060131;28;20041;-67
2023/10/05 13:03:59;;;;;;;4.30;3.00;;;17.10;99.90;;;;;;5067576;28;20048;-68
2023/10/05 13:06:32;;;;;;;5.80;2.92;;;17.00;99.90;;;;;;5058934;28;20382;-68
2023/10/05 13:09:18;;;;;;;7.72;2.92;;;17.00;99.90;;;;;;5043688;28;20132;-66
2023/10/05 13:11:50;;;;;;;6.05;3.85;;;16.90;99.90;;;;;;5060427;28;20044;-67
2023/10/05 13:14:22;;;;;;;5.93;3.25;;;16.90;99.90;;;;;;5063676;28;20037;-66
2023/10/05 13:16:49;;;;;;;6.18;2.75;;;16.80;99.90;;;;;;5063123;28;20060;-67
2023/10/05 13:19:18;;;;;;;8.43;2.67;;;16.70;99.90;;;;;;5059671;28;20039;-67
2023/10/05 13:21:50;;;;;;;11.40;2.90;;;16.70;99.90;;;;;;5058882;28;20493;-66
2023/10/05 13:24:17;;;;;;;5.57;3.38;;;16.70;99.90;;;;;;5066540;28;20068;-67
2023/10/05 13:26:52;;;;;;;8.95;3.45;;;16.70;99.90;;;;;;5050266;28;20044;-66
2023/10/05 13:29:25;;;;;;;6.00;2.95;;;16.60;99.90;;;;;;5065034;28;20052;-67
2023/10/05 13:31:57;;;;;;;7.85;2.85;;;16.60;99.90;;;;;;5066569;28;20680;-67
2023/10/05 13:34:27;;;;;;;7.40;2.80;;;16.60;99.90;;;;;;5055848;28;20597;-68
2023/10/05 13:36:59;;;;;;;4.70;2.90;;;16.60;99.90;;;;;;5059303;28;20047;-68
2023/10/05 13:39:26;;;;;;;10.38;3.25;;;16.70;99.90;;;;;;5059498;28;20043;-69
2023/10/05 13:42:05;;;;;;;6.15;2.97;;;16.70;99.90;;;;;;5057147;28;20084;-67
2023/10/05 13:44:32;;;;;;;5.80;3.20;;;16.80;99.90;;;;;;5059414;28;20045;-69
2023/10/05 13:47:05;;;;;;;6.80;3.03;;;16.80;99.90;;;;;;5056992;28;20120;-65
2023/10/05 13:49:41;;;;;;;6.50;2.60;;;16.80;99.90;;;;;;5058850;28;20103;-66